Time,TemperatureF,DewpointF,PressureIn,WindDirection,WindDirectionDegrees,WindSpeedMPH,WindSpeedGustMPH,Humidity,HourlyPrecipIn,Conditions,Clouds,dailyrainin,SoftwareType,DateUTC
2013-06-13 00:01:00,54.0,51.0,29.79,SSW,196,0.0,0.0,90,0.00,,,0.00,,2013-06-13 04:01:00,
2013-06-13 00:12:00,54.0,51.0,29.79,SSW,196,0.0,0.0,91,0.00,,,0.00,,2013-06-13 04:12:00,
2013-06-13 00:22:00,54.0,51.0,29.79,SSW,196,0.0,0.0,91,0.00,,,0.00,,2013-06-13 04:22:00,
2013-06-13 00:32:00,53.0,50.0,29.78,SSW,196,0.0,0.0,91,0.00,,,0.00,,2013-06-13 04:32:00,
2013-06-13 00:43:00,53.0,51.0,29.78,SSW,196,0.0,0.0,92,0.00,,,0.00,,2013-06-13 04:43:00,
2013-06-13 00:53:00,52.0,50.0,29.78,SSW,196,0.0,0.0,93,0.00,,,0.00,,2013-06-13 04:53:00,
2013-06-13 01:02:00,52.0,50.0,29.78,SSW,196,0.0,0.0,93,0.00,,,0.00,,2013-06-13 05:02:00,
2013-06-13 01:12:00,52.0,50.0,29.78,SSW,196,0.0,0.0,93,0.00,,,0.00,,2013-06-13 05:12:00,
2013-06-13 01:24:00,52.0,50.0,29.77,SSW,196,0.0,0.0,93,0.00,,,0.00,,2013-06-13 05:24:00,
2013-06-13 01:33:00,52.0,50.0,29.77,SSW,196,0.0,0.0,94,0.00,,,0.00,,2013-06-13 05:33:00,
2013-06-13 01:43:00,51.0,50.0,29.77,SSW,196,0.0,0.0,95,0.00,,,0.00,,2013-06-13 05:43:00,
2013-06-13 01:53:00,51.0,50.0,29.77,SSW,196,0.0,0.0,95,0.00,,,0.00,,2013-06-13 05:53:00,
2013-06-13 02:02:00,51.0,50.0,29.78,SSW,196,0.0,0.0,95,0.00,,,0.00,,2013-06-13 06:02:00,
2013-06-13 02:11:00,51.0,50.0,29.78,SSW,196,0.0,0.0,95,0.00,,,0.00,,2013-06-13 06:11:00,
2013-06-13 02:22:00,51.0,50.0,29.78,SSW,196,0.0,0.0,96,0.00,,,0.00,,2013-06-13 06:22:00,
2013-06-13 02:33:00,51.0,50.0,29.78,SSW,196,0.0,0.0,96,0.00,,,0.00,,2013-06-13 06:33:00,
2013-06-13 02:44:00,51.0,50.0,29.78,SSW,196,0.0,0.0,96,0.00,,,0.00,,2013-06-13 06:44:00,
2013-06-13 02:52:00,50.0,49.0,29.78,SSW,196,0.0,0.0,96,0.00,,,0.00,,2013-06-13 06:52:00,
2013-06-13 03:02:00,51.0,50.0,29.77,SSW,196,0.0,0.0,96,0.00,,,0.00,,2013-06-13 07:02:00,
2013-06-13 03:12:00,50.0,49.0,29.77,SSW,196,0.0,0.0,96,0.00,,,0.00,,2013-06-13 07:12:00,
2013-06-13 03:22:00,50.0,49.0,29.77,SSW,196,0.0,0.0,96,0.00,,,0.00,,2013-06-13 07:22:00,
2013-06-13 03:33:00,50.0,49.0,29.77,SSW,196,0.0,0.0,96,0.00,,,0.00,,2013-06-13 07:33:00,
2013-06-13 03:42:00,50.0,49.0,29.77,SSW,196,0.0,0.0,96,0.00,,,0.00,,2013-06-13 07:42:00,
2013-06-13 03:52:00,50.0,49.0,29.77,SSW,196,0.0,0.0,97,0.00,,,0.00,,2013-06-13 07:52:00,
2013-06-13 04:01:00,50.0,49.0,29.76,SSW,196,0.0,0.0,96,0.00,,,0.00,,2013-06-13 08:01:00,
2013-06-13 04:11:00,49.0,48.0,29.76,SSW,196,0.0,0.0,96,0.00,,,0.00,,2013-06-13 08:11:00,
2013-06-13 04:22:00,49.0,48.0,29.77,SSW,196,0.0,0.0,97,0.00,,,0.00,,2013-06-13 08:22:00,
2013-06-13 04:32:00,49.0,48.0,29.76,SSW,196,0.0,0.0,97,0.00,,,0.00,,2013-06-13 08:32:00,
2013-06-13 04:43:00,49.0,48.0,29.76,SSW,196,0.0,0.0,97,0.00,,,0.00,,2013-06-13 08:43:00,
2013-06-13 04:52:00,49.0,48.0,29.77,SSW,196,0.0,0.0,97,0.00,,,0.00,,2013-06-13 08:52:00,
2013-06-13 05:02:00,49.0,48.0,29.77,SSW,196,0.0,0.0,97,0.00,,,0.00,,2013-06-13 09:02:00,
2013-06-13 05:12:00,48.0,47.0,29.77,SSW,196,0.0,0.0,97,0.00,,,0.00,,2013-06-13 09:12:00,
2013-06-13 05:22:00,48.0,47.0,29.76,SSW,196,0.0,0.0,97,0.00,,,0.00,,2013-06-13 09:22:00,
2013-06-13 05:32:00,48.0,47.0,29.77,SSW,196,0.0,0.0,97,0.00,,,0.00,,2013-06-13 09:32:00,
2013-06-13 05:42:00,48.0,47.0,29.77,SSW,196,0.0,0.0,97,0.00,,,0.00,,2013-06-13 09:42:00,
2013-06-13 05:52:00,48.0,47.0,29.77,SSW,196,0.0,0.0,97,0.00,,,0.00,,2013-06-13 09:52:00,
2013-06-13 06:01:00,48.0,47.0,29.77,SSW,196,0.0,0.0,98,0.00,,,0.00,,2013-06-13 10:01:00,
2013-06-13 06:12:00,48.0,47.0,29.77,SSW,196,0.0,0.0,98,0.00,,,0.00,,2013-06-13 10:12:00,
2013-06-13 06:22:00,48.0,47.0,29.78,SSW,196,0.0,0.0,98,0.00,,,0.00,,2013-06-13 10:22:00,
2013-06-13 06:33:00,49.0,48.0,29.77,SSW,196,0.0,0.0,98,0.00,,,0.00,,2013-06-13 10:33:00,
2013-06-13 06:43:00,50.0,50.0,29.77,SSW,196,0.0,0.0,99,0.00,,,0.00,,2013-06-13 10:43:00,
2013-06-13 06:53:00,51.0,51.0,29.77,SSW,196,0.0,0.0,99,0.00,,,0.00,,2013-06-13 10:53:00,
2013-06-13 07:02:00,51.0,51.0,29.77,SSW,196,0.0,0.0,99,0.00,,,0.00,,2013-06-13 11:02:00,
2013-06-13 07:12:00,52.0,52.0,29.77,SSW,196,0.0,0.0,99,0.00,,,0.00,,2013-06-13 11:12:00,
2013-06-13 07:24:00,53.0,53.0,29.77,SSW,196,0.0,0.0,99,0.00,,,0.00,,2013-06-13 11:24:00,
2013-06-13 07:32:00,54.0,54.0,29.77,SSW,196,0.0,0.0,99,0.00,,,0.00,,2013-06-13 11:32:00,
2013-06-13 07:42:00,54.0,54.0,29.77,SSW,196,0.0,0.0,99,0.00,,,0.00,,2013-06-13 11:42:00,
2013-06-13 07:52:00,55.0,55.0,29.77,SSW,196,0.0,0.0,99,0.00,,,0.00,,2013-06-13 11:52:00,
2013-06-13 08:02:00,55.0,55.0,29.77,SSW,196,0.0,0.0,99,0.00,,,0.00,,2013-06-13 12:02:00,
2013-06-13 08:12:00,56.0,56.0,29.77,SSW,196,0.0,0.0,99,0.00,,,0.00,,2013-06-13 12:12:00,
2013-06-13 08:22:00,56.0,55.0,29.75,SSW,196,0.0,0.0,98,0.00,,,0.00,,2013-06-13 12:22:00,
2013-06-13 08:35:00,57.0,56.0,29.75,SSW,196,0.0,0.0,98,0.00,,,0.00,,2013-06-13 12:35:00,
2013-06-13 08:43:00,57.0,56.0,29.75,SSW,196,0.0,0.0,97,0.00,,,0.00,,2013-06-13 12:43:00,
2013-06-13 08:52:00,57.0,56.0,29.75,SSW,196,0.0,0.0,97,0.00,,,0.00,,2013-06-13 12:52:00,
2013-06-13 09:02:00,58.0,57.0,29.75,SSW,196,0.0,0.0,96,0.00,,,0.00,,2013-06-13 13:02:00,
2013-06-13 09:11:00,58.0,56.0,29.75,SSW,196,0.0,0.0,94,0.00,,,0.00,,2013-06-13 13:11:00,
2013-06-13 09:22:00,58.0,56.0,29.75,SSW,196,0.0,0.0,93,0.00,,,0.00,,2013-06-13 13:22:00,
2013-06-13 09:33:00,58.0,56.0,29.74,SSW,196,0.0,0.0,93,0.00,,,0.00,,2013-06-13 13:33:00,
2013-06-13 09:43:00,58.0,56.0,29.74,SSW,196,0.0,0.0,92,0.00,,,0.00,,2013-06-13 13:43:00,
2013-06-13 09:53:00,59.0,57.0,29.75,SSW,196,0.0,0.0,92,0.00,,,0.00,,2013-06-13 13:53:00,
2013-06-13 10:02:00,59.0,57.0,29.75,SSW,196,0.0,0.0,92,0.00,,,0.00,,2013-06-13 14:02:00,
2013-06-13 10:11:00,59.0,56.0,29.75,SSW,196,0.0,0.0,91,0.00,,,0.00,,2013-06-13 14:11:00,
2013-06-13 10:22:00,59.0,57.0,29.74,SSW,196,0.0,0.0,92,0.00,,,0.00,,2013-06-13 14:22:00,
2013-06-13 10:33:00,59.0,57.0,29.73,SSW,196,0.0,0.0,92,0.00,,,0.00,,2013-06-13 14:33:00,
2013-06-13 10:43:00,60.0,58.0,29.73,SSW,196,0.0,0.0,92,0.00,,,0.00,,2013-06-13 14:43:00,
2013-06-13 10:53:00,60.0,57.0,29.74,SSW,196,0.0,0.0,91,0.00,,,0.00,,2013-06-13 14:53:00,
2013-06-13 11:02:00,59.0,56.0,29.75,SSW,196,0.0,0.0,90,0.00,,,0.00,,2013-06-13 15:02:00,
2013-06-13 11:12:00,59.0,56.0,29.75,SSW,196,0.0,0.0,90,0.00,,,0.00,,2013-06-13 15:12:00,
2013-06-13 11:22:00,59.0,56.0,29.74,SSW,196,0.0,0.0,89,0.00,,,0.00,,2013-06-13 15:22:00,
2013-06-13 11:33:00,59.0,55.0,29.74,SSW,196,0.0,0.0,88,0.01,,,0.01,,2013-06-13 15:33:00,
2013-06-13 11:43:00,59.0,56.0,29.74,SSW,196,0.0,0.0,89,0.01,,,0.01,,2013-06-13 15:43:00,
2013-06-13 11:53:00,59.0,56.0,29.74,SSW,196,0.0,0.0,90,0.01,,,0.01,,2013-06-13 15:53:00,
2013-06-13 12:02:00,59.0,56.0,29.74,SSW,196,0.0,0.0,89,0.01,,,0.01,,2013-06-13 16:02:00,
2013-06-13 12:12:00,58.0,55.0,29.74,SSW,196,0.0,0.0,90,0.01,,,0.01,,2013-06-13 16:12:00,
2013-06-13 12:22:00,58.0,55.0,29.74,NNW,332,0.0,0.0,91,0.02,,,0.02,,2013-06-13 16:22:00,
2013-06-13 12:33:00,58.0,56.0,29.77,NNW,332,0.0,1.0,93,0.03,,,0.04,,2013-06-13 16:33:00,
2013-06-13 12:43:00,58.0,57.0,29.77,NNW,332,0.0,0.0,95,0.06,,,0.07,,2013-06-13 16:43:00,
2013-06-13 12:53:00,58.0,57.0,29.72,NNW,332,0.0,0.0,95,0.08,,,0.09,,2013-06-13 16:53:00,
2013-06-13 13:02:00,58.0,57.0,29.71,NNW,332,0.0,0.0,95,0.09,,,0.10,,2013-06-13 17:02:00,
2013-06-13 13:12:00,57.0,56.0,29.71,NNW,332,0.0,0.0,95,0.11,,,0.12,,2013-06-13 17:12:00,
2013-06-13 13:24:00,57.0,56.0,29.71,WNW,292,0.0,0.0,96,0.12,,,0.14,,2013-06-13 17:24:00,
2013-06-13 13:33:00,57.0,56.0,29.67,West,272,3.0,4.0,96,0.11,,,0.15,,2013-06-13 17:33:00,
2013-06-13 13:43:00,57.0,56.0,29.67,West,272,0.0,1.0,96,0.10,,,0.17,,2013-06-13 17:43:00,
2013-06-13 13:53:00,57.0,56.0,29.68,West,272,0.0,1.0,96,0.11,,,0.20,,2013-06-13 17:53:00,
2013-06-13 14:02:00,57.0,56.0,29.69,WNW,295,0.0,2.0,96,0.11,,,0.21,,2013-06-13 18:02:00,
2013-06-13 14:11:00,57.0,56.0,29.69,WSW,246,1.0,3.0,96,0.11,,,0.23,,2013-06-13 18:11:00,
2013-06-13 14:22:00,57.0,56.0,29.70,West,262,0.0,0.0,96,0.12,,,0.26,,2013-06-13 18:22:00,
2013-06-13 14:33:00,57.0,56.0,29.69,West,262,0.0,0.0,96,0.13,,,0.28,,2013-06-13 18:33:00,
2013-06-13 14:43:00,57.0,56.0,29.69,West,262,0.0,0.0,97,0.12,,,0.29,,2013-06-13 18:43:00,
2013-06-13 14:52:00,57.0,56.0,29.69,West,262,0.0,0.0,97,0.09,,,0.29,,2013-06-13 18:52:00,
2013-06-13 15:02:00,57.0,56.0,29.68,WNW,298,0.0,2.0,97,0.08,,,0.29,,2013-06-13 19:02:00,
2013-06-13 15:11:00,56.0,55.0,29.68,WNW,298,0.0,2.0,96,0.08,,,0.31,,2013-06-13 19:11:00,
2013-06-13 15:22:00,56.0,55.0,29.68,WNW,298,0.0,1.0,97,0.07,,,0.33,,2013-06-13 19:22:00,
2013-06-13 15:33:00,56.0,55.0,29.67,West,265,0.0,1.0,97,0.06,,,0.34,,2013-06-13 19:33:00,
2013-06-13 15:43:00,56.0,55.0,29.67,West,265,0.0,1.0,97,0.05,,,0.34,,2013-06-13 19:43:00,
2013-06-13 15:53:00,55.0,54.0,29.68,NW,324,0.0,2.0,96,0.05,,,0.34,,2013-06-13 19:53:00,
2013-06-13 16:02:00,55.0,54.0,29.67,NNW,332,0.0,2.0,96,0.05,,,0.34,,2013-06-13 20:02:00,
2013-06-13 16:11:00,55.0,54.0,29.67,NNW,332,0.0,1.0,96,0.04,,,0.34,,2013-06-13 20:11:00,
2013-06-13 16:22:00,55.0,54.0,29.67,NNW,332,0.0,0.0,97,0.01,,,0.34,,2013-06-13 20:22:00,
2013-06-13 16:33:00,55.0,54.0,29.66,NNW,335,0.0,0.0,97,0.00,,,0.34,,2013-06-13 20:33:00,
2013-06-13 16:44:00,55.0,54.0,29.66,NNW,329,0.0,2.0,97,0.00,,,0.34,,2013-06-13 20:44:00,
2013-06-13 16:53:00,55.0,54.0,29.66,North,11,0.0,0.0,97,0.01,,,0.35,,2013-06-13 20:53:00,
2013-06-13 17:02:00,55.0,54.0,29.65,NNE,19,0.0,1.0,97,0.01,,,0.35,,2013-06-13 21:02:00,
2013-06-13 17:11:00,55.0,54.0,29.65,NW,309,0.0,2.0,97,0.01,,,0.35,,2013-06-13 21:11:00,
2013-06-13 17:22:00,55.0,54.0,29.64,NNW,338,0.0,0.0,98,0.01,,,0.35,,2013-06-13 21:22:00,
2013-06-13 17:34:00,55.0,54.0,29.64,NNW,340,0.0,1.0,98,0.01,,,0.35,,2013-06-13 21:34:00,
2013-06-13 17:43:00,55.0,54.0,29.64,North,360,0.0,1.0,98,0.01,,,0.35,,2013-06-13 21:43:00,
2013-06-13 17:52:00,55.0,54.0,29.63,North,5,1.0,2.0,98,0.02,,,0.37,,2013-06-13 21:52:00,
2013-06-13 18:02:00,54.0,53.0,29.63,SW,221,0.0,2.0,98,0.04,,,0.39,,2013-06-13 22:02:00,
2013-06-13 18:11:00,54.0,53.0,29.63,NNE,15,1.0,1.0,98,0.05,,,0.40,,2013-06-13 22:11:00,
2013-06-13 18:22:00,54.0,53.0,29.63,WNW,284,0.0,2.0,98,0.07,,,0.42,,2013-06-13 22:22:00,
2013-06-13 18:33:00,53.0,52.0,29.64,WNW,286,0.0,1.0,98,0.09,,,0.44,,2013-06-13 22:33:00,
2013-06-13 18:43:00,53.0,52.0,29.64,SW,221,0.0,1.0,98,0.12,,,0.47,,2013-06-13 22:43:00,
2013-06-13 18:52:00,53.0,52.0,29.65,West,268,0.0,1.0,98,0.13,,,0.50,,2013-06-13 22:52:00,
2013-06-13 19:02:00,53.0,52.0,29.66,ENE,68,0.0,1.0,98,0.15,,,0.53,,2013-06-13 23:02:00,
2013-06-13 19:11:00,53.0,52.0,29.66,NNW,341,1.0,2.0,98,0.15,,,0.55,,2013-06-13 23:11:00,
2013-06-13 19:22:00,53.0,52.0,29.65,SSE,167,0.0,2.0,98,0.13,,,0.55,,2013-06-13 23:22:00,
2013-06-13 19:32:00,53.0,52.0,29.65,NE,46,0.0,3.0,98,0.12,,,0.56,,2013-06-13 23:32:00,
2013-06-13 19:43:00,52.0,51.0,29.65,North,355,0.0,2.0,98,0.11,,,0.58,,2013-06-13 23:43:00,
2013-06-13 19:52:00,52.0,51.0,29.64,West,270,1.0,2.0,98,0.06,,,0.59,,2013-06-13 23:52:00,
2013-06-13 20:01:00,52.0,51.0,29.64,West,270,1.0,2.0,98,0.06,,,0.59,,2013-06-14 00:01:00,
2013-06-13 20:12:00,52.0,51.0,29.64,NNW,329,0.0,2.0,98,0.04,,,0.59,,2013-06-14 00:12:00,
2013-06-13 20:22:00,52.0,52.0,29.64,West,269,0.0,3.0,99,0.04,,,0.59,,2013-06-14 00:22:00,
2013-06-13 20:34:00,52.0,51.0,29.64,WSW,246,0.0,2.0,98,0.04,,,0.60,,2013-06-14 00:34:00,
2013-06-13 20:43:00,52.0,52.0,29.64,WSW,246,0.0,1.0,99,0.02,,,0.60,,2013-06-14 00:43:00,
2013-06-13 20:53:00,52.0,52.0,29.63,WSW,246,1.0,1.0,99,0.02,,,0.60,,2013-06-14 00:53:00,
2013-06-13 21:01:00,52.0,52.0,29.63,South,172,0.0,2.0,99,0.01,,,0.60,,2013-06-14 01:01:00,
2013-06-13 21:11:00,52.0,52.0,29.63,SSE,154,0.0,3.0,99,0.02,,,0.61,,2013-06-14 01:11:00,
2013-06-13 21:22:00,52.0,52.0,29.64,ESE,123,0.0,1.0,99,0.02,,,0.61,,2013-06-14 01:22:00,
2013-06-13 21:33:00,51.0,51.0,29.64,WSW,254,0.0,2.0,99,0.01,,,0.61,,2013-06-14 01:33:00,
2013-06-13 21:43:00,51.0,51.0,29.64,West,269,0.0,3.0,99,0.02,,,0.62,,2013-06-14 01:43:00,
2013-06-13 21:52:00,51.0,51.0,29.64,West,271,0.0,1.0,99,0.02,,,0.62,,2013-06-14 01:52:00,
2013-06-13 22:02:00,51.0,51.0,29.63,NE,49,0.0,2.0,99,0.04,,,0.64,,2013-06-14 02:02:00,
2013-06-13 22:11:00,51.0,51.0,29.63,WNW,285,0.0,2.0,99,0.05,,,0.66,,2013-06-14 02:11:00,
2013-06-13 22:22:00,51.0,51.0,29.63,WNW,285,0.0,1.0,99,0.06,,,0.67,,2013-06-14 02:22:00,
2013-06-13 22:32:00,51.0,51.0,29.62,WNW,284,0.0,1.0,99,0.07,,,0.68,,2013-06-14 02:32:00,
2013-06-13 22:43:00,52.0,52.0,29.62,South,188,0.0,2.0,99,0.07,,,0.69,,2013-06-14 02:43:00,
2013-06-13 22:52:00,52.0,52.0,29.62,NW,322,0.0,1.0,99,0.08,,,0.70,,2013-06-14 02:52:00,
2013-06-13 23:02:00,51.0,51.0,29.62,East,94,1.0,3.0,99,0.08,,,0.72,,2013-06-14 03:02:00,
2013-06-13 23:12:00,51.0,51.0,29.62,WSW,258,0.0,3.0,99,0.08,,,0.74,,2013-06-14 03:12:00,
2013-06-13 23:22:00,51.0,51.0,29.61,NNE,13,0.0,1.0,99,0.10,,,0.77,,2013-06-14 03:22:00,
2013-06-13 23:34:00,51.0,51.0,29.60,NNE,13,0.0,0.0,99,0.17,,,0.85,,2013-06-14 03:34:00,
2013-06-13 23:43:00,51.0,51.0,29.60,NNE,18,0.0,1.0,99,0.21,,,0.90,,2013-06-14 03:43:00,
2013-06-13 23:53:00,51.0,51.0,29.59,West,272,1.0,2.0,99,0.23,,,0.93,,2013-06-14 03:53:00,